sensor_id;sensor_type;location;lat;lon;timestamp;pressure;altitude;pressure_sealevel;temperature;humidity
37764;BME280;23602;51.084;7.090;2023-04-15T00:00:23;99251.28;;;5.53;100.00
37764;BME280;23602;51.084;7.090;2023-04-15T00:02:49;99250.88;;;5.56;100.00
37764;BME280;23602;51.084;7.090;2023-04-15T00:05:14;99252.91;;;5.54;100.00
37764;BME280;23602;51.084;7.090;2023-04-15T00:07:42;99256.63;;;5.53;100.00
37764;BME280;23602;51.084;7.090;2023-04-15T00:10:08;99257.00;;;5.50;100.00
37764;BME280;23602;51.084;7.090;2023-04-15T00:12:36;99253.13;;;5.53;100.00
37764;BME280;23602;51.084;7.090;2023-04-15T00:15:04;99248.00;;;5.51;100.00
37764;BME280;23602;51.084;7.090;2023-04-15T00:17:32;99252.91;;;5.48;100.00
37764;BME280;23602;51.084;7.090;2023-04-15T00:20:04;99254.94;;;5.46;100.00
37764;BME280;23602;51.084;7.090;2023-04-15T00:22:33;99241.81;;;5.44;100.00
37764;BME280;23602;51.084;7.090;2023-04-15T00:25:16;99252.88;;;5.41;100.00
37764;BME280;23602;51.084;7.090;2023-04-15T00:27:44;99251.66;;;5.44;100.00
37764;BME280;23602;51.084;7.090;2023-04-15T00:30:09;99246.34;;;5.44;100.00
37764;BME280;23602;51.084;7.090;2023-04-15T00:32:38;99248.13;;;5.37;100.00
37764;BME280;23602;51.084;7.090;2023-04-15T00:35:12;99238.50;;;5.42;100.00
37764;BME280;23602;51.084;7.090;2023-04-15T00:37:45;99236.69;;;5.43;100.00
37764;BME280;23602;51.084;7.090;2023-04-15T00:40:13;99246.91;;;5.39;100.00
37764;BME280;23602;51.084;7.090;2023-04-15T00:42:41;99242.78;;;5.37;100.00
37764;BME280;23602;51.084;7.090;2023-04-15T00:45:09;99244.06;;;5.41;100.00
37764;BME280;23602;51.084;7.090;2023-04-15T00:47:46;99239.34;;;5.36;100.00
37764;BME280;23602;51.084;7.090;2023-04-15T00:50:14;99243.03;;;5.42;100.00
37764;BME280;23602;51.084;7.090;2023-04-15T00:52:39;99250.00;;;5.43;100.00
37764;BME280;23602;51.084;7.090;2023-04-15T00:55:08;99247.72;;;5.40;100.00
37764;BME280;23602;51.084;7.090;2023-04-15T00:57:35;99248.56;;;5.40;100.00
37764;BME280;23602;51.084;7.090;2023-04-15T01:00:01;99250.41;;;5.40;100.00
37764;BME280;23602;51.084;7.090;2023-04-15T01:02:28;99254.72;;;5.41;100.00
37764;BME280;23602;51.084;7.090;2023-04-15T01:04:55;99248.56;;;5.40;100.00
37764;BME280;23602;51.084;7.090;2023-04-15T01:07:21;99244.84;;;5.35;100.00
37764;BME280;23602;51.084;7.090;2023-04-15T01:09:49;99247.13;;;5.38;100.00
37764;BME280;23602;51.084;7.090;2023-04-15T01:12:14;99241.78;;;5.38;100.00
37764;BME280;23602;51.084;7.090;2023-04-15T01:14:40;99238.28;;;5.37;100.00
37764;BME280;23602;51.084;7.090;2023-04-15T01:17:09;99243.63;;;5.37;100.00
37764;BME280;23602;51.084;7.090;2023-04-15T01:19:42;99239.34;;;5.36;100.00
37764;BME280;23602;51.084;7.090;2023-04-15T01:22:07;99236.03;;;5.34;100.00
37764;BME280;23602;51.084;7.090;2023-04-15T01:24:33;99237.69;;;5.35;100.00
37764;BME280;23602;51.084;7.090;2023-04-15T01:26:59;99229.06;;;5.33;100.00
37764;BME280;23602;51.084;7.090;2023-04-15T01:29:25;99234.78;;;5.30;100.00
37764;BME280;23602;51.084;7.090;2023-04-15T01:31:51;99232.94;;;5.31;100.00
37764;BME280;23602;51.084;7.090;2023-04-15T01:34:17;99233.34;;;5.28;100.00
37764;BME280;23602;51.084;7.090;2023-04-15T01:36:42;99242.75;;;5.24;100.00
37764;BME280;23602;51.084;7.090;2023-04-15T01:39:08;99234.75;;;5.24;100.00
37764;BME280;23602;51.084;7.090;2023-04-15T01:41:33;99243.38;;;5.26;100.00
37764;BME280;23602;51.084;7.090;2023-04-15T01:43:59;99236.59;;;5.23;100.00
37764;BME280;23602;51.084;7.090;2023-04-15T01:46:26;99242.94;;;5.22;100.00
37764;BME280;23602;51.084;7.090;2023-04-15T01:48:51;99230.22;;;5.24;100.00
37764;BME280;23602;51.084;7.090;2023-04-15T01:51:17;99235.56;;;5.24;100.00
37764;BME280;23602;51.084;7.090;2023-04-15T01:53:43;99235.97;;;5.21;100.00
37764;BME280;23602;51.084;7.090;2023-04-15T01:56:08;99233.09;;;5.16;100.00
37764;BME280;23602;51.084;7.090;2023-04-15T01:58:33;99234.72;;;5.17;100.00
37764;BME280;23602;51.084;7.090;2023-04-15T02:00:59;99233.09;;;5.16;100.00
37764;BME280;23602;51.084;7.090;2023-04-15T02:03:27;99237.53;;;5.09;100.00
37764;BME280;23602;51.084;7.090;2023-04-15T02:05:53;99228.94;;;5.13;100.00
37764;BME280;23602;51.084;7.090;2023-04-15T02:08:18;99232.66;;;5.13;100.00
37764;BME280;23602;51.084;7.090;2023-04-15T02:10:43;99227.50;;;5.11;100.00
37764;BME280;23602;51.084;7.090;2023-04-15T02:13:12;99230.22;;;5.18;100.00
37764;BME280;23602;51.084;7.090;2023-04-15T02:15:37;99240.03;;;5.17;100.00
37764;BME280;23602;51.084;7.090;2023-04-15T02:18:05;99239.22;;;5.17;100.00
37764;BME280;23602;51.084;7.090;2023-04-15T02:20:31;99234.91;;;5.16;100.00
37764;BME280;23602;51.084;7.090;2023-04-15T02:22:56;99239.66;;;5.20;100.00
37764;BME280;23602;51.084;7.090;2023-04-15T02:25:22;99246.41;;;5.16;100.00
37764;BME280;23602;51.084;7.090;2023-04-15T02:27:48;99241.88;;;5.17;100.00
37764;BME280;23602;51.084;7.090;2023-04-15T02:30:14;99240.81;;;5.11;100.00
37764;BME280;23602;51.084;7.090;2023-04-15T02:32:40;99248.81;;;5.11;100.00
37764;BME280;23602;51.084;7.090;2023-04-15T02:35:08;99242.03;;;5.08;100.00
37764;BME280;23602;51.084;7.090;2023-04-15T02:37:34;99241.41;;;5.06;100.00
37764;BME280;23602;51.084;7.090;2023-04-15T02:40:05;99257.59;;;5.05;100.00
37764;BME280;23602;51.084;7.090;2023-04-15T02:42:33;99257.97;;;5.02;100.00
37764;BME280;23602;51.084;7.090;2023-04-15T02:44:59;99260.66;;;5.02;100.00
37764;BME280;23602;51.084;7.090;2023-04-15T02:47:24;99257.34;;;5.00;100.00
37764;BME280;23602;51.084;7.090;2023-04-15T02:49:51;99266.19;;;5.00;100.00
37764;BME280;23602;51.084;7.090;2023-04-15T02:52:16;99265.09;;;4.95;100.00
37764;BME280;23602;51.084;7.090;2023-04-15T02:54:42;99258.38;;;4.99;100.00
37764;BME280;23602;51.084;7.090;2023-04-15T02:57:07;99260.41;;;4.97;100.00
37764;BME280;23602;51.084;7.090;2023-04-15T02:59:34;99266.94;;;4.94;100.00
37764;BME280;23602;51.084;7.090;2023-04-15T03:02:00;99257.50;;;4.92;100.00
37764;BME280;23602;51.084;7.090;2023-04-15T03:04:26;99262.00;;;4.91;100.00
37764;BME280;23602;51.084;7.090;2023-04-15T03:06:54;99266.09;;;4.87;100.00
37764;BME280;23602;51.084;7.090;2023-04-15T03:09:19;99273.25;;;4.87;100.00
37764;BME280;23602;51.084;7.090;2023-04-15T03:11:44;99266.47;;;4.84;100.00
37764;BME280;23602;51.084;7.090;2023-04-15T03:14:10;99279.75;;;4.78;100.00
37764;BME280;23602;51.084;7.090;2023-04-15T03:16:38;99275.41;;;4.77;100.00
37764;BME280;23602;51.084;7.090;2023-04-15T03:19:03;99278.03;;;4.70;100.00
37764;BME280;23602;51.084;7.090;2023-04-15T03:21:29;99275.19;;;4.72;100.00
37764;BME280;23602;51.084;7.090;2023-04-15T03:23:55;99277.00;;;4.71;100.00
37764;BME280;23602;51.084;7.090;2023-04-15T03:26:30;99280.88;;;4.69;100.00
37764;BME280;23602;51.084;7.090;2023-04-15T03:28:55;99277.22;;;4.70;100.00
37764;BME280;23602;51.084;7.090;2023-04-15T03:31:21;99285.56;;;4.67;100.00
37764;BME280;23602;51.084;7.090;2023-04-15T03:33:47;99275.13;;;4.65;100.00
37764;BME280;23602;51.084;7.090;2023-04-15T03:36:12;99280.25;;;4.67;100.00
37764;BME280;23602;51.084;7.090;2023-04-15T03:38:37;99285.13;;;4.63;100.00
37764;BME280;23602;51.084;7.090;2023-04-15T03:41:03;99290.88;;;4.60;100.00
37764;BME280;23602;51.084;7.090;2023-04-15T03:43:29;99292.69;;;4.60;100.00
37764;BME280;23602;51.084;7.090;2023-04-15T03:45:54;99293.53;;;4.60;100.00
37764;BME280;23602;51.084;7.090;2023-04-15T03:48:20;99285.13;;;4.63;100.00
37764;BME280;23602;51.084;7.090;2023-04-15T03:50:45;99287.00;;;4.63;100.00
37764;BME280;23602;51.084;7.090;2023-04-15T03:53:11;99295.97;;;4.62;100.00
37764;BME280;23602;51.084;7.090;2023-04-15T03:55:36;99295.78;;;4.63;100.00
37764;BME280;23602;51.084;7.090;2023-04-15T03:58:02;99302.75;;;4.64;100.00
37764;BME280;23602;51.084;7.090;2023-04-15T04:00:28;99304.34;;;4.59;100.00
37764;BME280;23602;51.084;7.090;2023-04-15T04:02:53;99309.28;;;4.62;100.00
37764;BME280;23602;51.084;7.090;2023-04-15T04:05:19;99312.31;;;4.59;100.00
37764;BME280;23602;51.084;7.090;2023-04-15T04:07:44;99309.66;;;4.59;100.00
37764;BME280;23602;51.084;7.090;2023-04-15T04:10:10;99307.97;;;4.51;100.00
37764;BME280;23602;51.084;7.090;2023-04-15T04:12:37;99304.66;;;4.49;100.00
37764;BME280;23602;51.084;7.090;2023-04-15T04:15:03;99305.03;;;4.46;100.00
37764;BME280;23602;51.084;7.090;2023-04-15T04:17:28;99305.88;;;4.46;100.00
37764;BME280;23602;51.084;7.090;2023-04-15T04:19:55;99301.75;;;4.44;100.00
37764;BME280;23602;51.084;7.090;2023-04-15T04:22:23;99304.34;;;4.37;100.00
37764;BME280;23602;51.084;7.090;2023-04-15T04:24:51;99309.66;;;4.37;100.00
37764;BME280;23602;51.084;7.090;2023-04-15T04:27:16;99315.19;;;4.36;100.00
37764;BME280;23602;51.084;7.090;2023-04-15T04:29:42;99315.19;;;4.36;100.00
37764;BME280;23602;51.084;7.090;2023-04-15T04:32:07;99320.88;;;4.33;100.00
37764;BME280;23602;51.084;7.090;2023-04-15T04:34:33;99316.13;;;4.28;100.00
37764;BME280;23602;51.084;7.090;2023-04-15T04:36:58;99316.88;;;4.22;100.00
37764;BME280;23602;51.084;7.090;2023-04-15T04:39:24;99325.25;;;4.19;100.00
37764;BME280;23602;51.084;7.090;2023-04-15T04:41:50;99316.63;;;4.17;100.00
37764;BME280;23602;51.084;7.090;2023-04-15T04:44:18;99320.88;;;4.12;100.00
37764;BME280;23602;51.084;7.090;2023-04-15T04:46:44;99336.94;;;4.04;100.00
37764;BME280;23602;51.084;7.090;2023-04-15T04:49:09;99336.13;;;4.03;100.00
37764;BME280;23602;51.084;7.090;2023-04-15T04:51:35;99343.09;;;4.04;100.00
37764;BME280;23602;51.084;7.090;2023-04-15T04:54:00;99335.66;;;4.00;100.00
37764;BME280;23602;51.084;7.090;2023-04-15T04:56:26;99345.03;;;3.96;100.00
37764;BME280;23602;51.084;7.090;2023-04-15T04:58:51;99345.94;;;3.88;100.00
37764;BME280;23602;51.084;7.090;2023-04-15T05:01:17;99340.00;;;3.86;100.00
37764;BME280;23602;51.084;7.090;2023-04-15T05:03:45;99347.97;;;3.86;100.00
37764;BME280;23602;51.084;7.090;2023-04-15T05:06:10;99356.31;;;3.83;100.00
37764;BME280;23602;51.084;7.090;2023-04-15T05:08:38;99355.41;;;3.76;100.00
37764;BME280;23602;51.084;7.090;2023-04-15T05:11:05;99350.91;;;3.76;100.00
37764;BME280;23602;51.084;7.090;2023-04-15T05:13:30;99355.78;;;3.73;100.00
37764;BME280;23602;51.084;7.090;2023-04-15T05:15:56;99359.81;;;3.69;100.00
37764;BME280;23602;51.084;7.090;2023-04-15T05:18:21;99359.81;;;3.69;100.00
37764;BME280;23602;51.084;7.090;2023-04-15T05:20:47;99370.81;;;3.66;100.00
37764;BME280;23602;51.084;7.090;2023-04-15T05:23:14;99375.56;;;3.70;100.00
37764;BME280;23602;51.084;7.090;2023-04-15T05:25:39;99373.75;;;3.71;100.00
37764;BME280;23602;51.084;7.090;2023-04-15T05:28:05;99378.22;;;3.70;100.00
37764;BME280;23602;51.084;7.090;2023-04-15T05:30:36;99372.56;;;3.73;100.00
37764;BME280;23602;51.084;7.090;2023-04-15T05:33:04;99383.25;;;3.80;100.00
37764;BME280;23602;51.084;7.090;2023-04-15T05:35:30;99382.25;;;3.81;100.00
37764;BME280;23602;51.084;7.090;2023-04-15T05:37:55;99389.84;;;3.84;100.00
37764;BME280;23602;51.084;7.090;2023-04-15T05:40:20;99397.28;;;3.89;100.00
37764;BME280;23602;51.084;7.090;2023-04-15T05:42:46;99386.09;;;3.93;100.00
37764;BME280;23602;51.084;7.090;2023-04-15T05:45:12;99400.81;;;4.10;100.00
37764;BME280;23602;51.084;7.090;2023-04-15T05:47:37;99402.16;;;4.21;100.00
37764;BME280;23602;51.084;7.090;2023-04-15T05:50:03;99406.81;;;4.33;100.00
37764;BME280;23602;51.084;7.090;2023-04-15T05:52:29;99410.63;;;4.45;100.00
37764;BME280;23602;51.084;7.090;2023-04-15T05:54:54;99407.84;;;4.54;100.00
37764;BME280;23602;51.084;7.090;2023-04-15T05:57:20;99424.41;;;4.70;100.00
37764;BME280;23602;51.084;7.090;2023-04-15T05:59:45;99414.44;;;4.79;100.00
37764;BME280;23602;51.084;7.090;2023-04-15T06:02:11;99422.09;;;4.88;100.00
37764;BME280;23602;51.084;7.090;2023-04-15T06:04:37;99425.94;;;5.00;100.00
37764;BME280;23602;51.084;7.090;2023-04-15T06:07:05;99430.53;;;5.13;100.00
37764;BME280;23602;51.084;7.090;2023-04-15T06:09:30;99430.00;;;5.24;100.00
37764;BME280;23602;51.084;7.090;2023-04-15T06:11:56;99435.06;;;5.40;100.00
37764;BME280;23602;51.084;7.090;2023-04-15T06:14:23;99437.63;;;5.55;100.00
37764;BME280;23602;51.084;7.090;2023-04-15T06:16:48;99443.28;;;5.73;100.00
37764;BME280;23602;51.084;7.090;2023-04-15T06:19:14;99439.13;;;5.92;100.00
37764;BME280;23602;51.084;7.090;2023-04-15T06:21:39;99435.72;;;6.11;100.00
37764;BME280;23602;51.084;7.090;2023-04-15T06:24:05;99414.31;;;6.45;100.00
37764;BME280;23602;51.084;7.090;2023-04-15T06:26:34;99412.31;;;6.67;100.00
37764;BME280;23602;51.084;7.090;2023-04-15T06:28:59;99419.94;;;6.83;100.00
37764;BME280;23602;51.084;7.090;2023-04-15T06:31:25;99417.31;;;7.09;100.00
37764;BME280;23602;51.084;7.090;2023-04-15T06:33:51;99403.09;;;7.35;100.00
37764;BME280;23602;51.084;7.090;2023-04-15T06:36:17;99409.25;;;7.48;100.00
37764;BME280;23602;51.084;7.090;2023-04-15T06:38:42;99397.91;;;7.79;100.00
37764;BME280;23602;51.084;7.090;2023-04-15T06:41:09;99407.50;;;7.93;100.00
37764;BME280;23602;51.084;7.090;2023-04-15T06:43:38;99397.41;;;8.08;100.00
37764;BME280;23602;51.084;7.090;2023-04-15T06:46:03;99395.28;;;8.23;100.00
37764;BME280;23602;51.084;7.090;2023-04-15T06:48:29;99392.13;;;8.40;100.00
37764;BME280;23602;51.084;7.090;2023-04-15T06:50:55;99399.88;;;8.54;100.00
37764;BME280;23602;51.084;7.090;2023-04-15T06:53:22;99401.84;;;8.72;100.00
37764;BME280;23602;51.084;7.090;2023-04-15T06:55:47;99405.25;;;8.85;100.00
37764;BME280;23602;51.084;7.090;2023-04-15T06:58:15;99398.22;;;8.91;100.00
37764;BME280;23602;51.084;7.090;2023-04-15T07:00:41;99399.38;;;9.02;100.00
37764;BME280;23602;51.084;7.090;2023-04-15T07:03:08;99411.63;;;9.16;100.00
37764;BME280;23602;51.084;7.090;2023-04-15T07:05:35;99410.91;;;9.27;100.00
37764;BME280;23602;51.084;7.090;2023-04-15T07:08:00;99402.81;;;9.33;100.00
37764;BME280;23602;51.084;7.090;2023-04-15T07:10:26;99407.03;;;9.47;100.00
37764;BME280;23602;51.084;7.090;2023-04-15T07:12:51;99403.41;;;9.60;100.00
37764;BME280;23602;51.084;7.090;2023-04-15T07:15:17;99407.81;;;9.73;100.00
37764;BME280;23602;51.084;7.090;2023-04-15T07:17:45;99412.00;;;9.87;100.00
37764;BME280;23602;51.084;7.090;2023-04-15T07:20:11;99418.72;;;9.96;100.00
37764;BME280;23602;51.084;7.090;2023-04-15T07:22:37;99411.31;;;10.09;100.00
37764;BME280;23602;51.084;7.090;2023-04-15T07:25:02;99408.44;;;10.11;100.00
37764;BME280;23602;51.084;7.090;2023-04-15T07:27:28;99422.25;;;10.14;100.00
37764;BME280;23602;51.084;7.090;2023-04-15T07:29:55;99424.03;;;10.21;100.00
37764;BME280;23602;51.084;7.090;2023-04-15T07:32:20;99421.75;;;10.24;100.00
37764;BME280;23602;51.084;7.090;2023-04-15T07:34:48;99428.00;;;10.36;100.00
37764;BME280;23602;51.084;7.090;2023-04-15T07:37:14;99431.63;;;10.42;100.00
37764;BME280;23602;51.084;7.090;2023-04-15T07:39:40;99442.22;;;10.55;100.00
37764;BME280;23602;51.084;7.090;2023-04-15T07:42:06;99436.88;;;10.66;100.00
37764;BME280;23602;51.084;7.090;2023-04-15T07:44:32;99447.91;;;10.76;100.00
37764;BME280;23602;51.084;7.090;2023-04-15T07:46:58;99436.59;;;10.74;100.00
37764;BME280;23602;51.084;7.090;2023-04-15T07:49:23;99443.13;;;10.78;100.00
37764;BME280;23602;51.084;7.090;2023-04-15T07:51:52;99441.66;;;10.94;100.00
37764;BME280;23602;51.084;7.090;2023-04-15T07:54:18;99457.09;;;10.99;100.00
37764;BME280;23602;51.084;7.090;2023-04-15T07:56:44;99448.03;;;11.11;100.00
37764;BME280;23602;51.084;7.090;2023-04-15T07:59:10;99457.66;;;11.30;100.00
37764;BME280;23602;51.084;7.090;2023-04-15T08:01:35;99450.78;;;11.34;100.00
37764;BME280;23602;51.084;7.090;2023-04-15T08:04:01;99460.41;;;11.54;100.00
37764;BME280;23602;51.084;7.090;2023-04-15T08:06:27;99463.81;;;11.72;100.00
37764;BME280;23602;51.084;7.090;2023-04-15T08:08:55;99469.22;;;11.84;100.00
37764;BME280;23602;51.084;7.090;2023-04-15T08:11:21;99463.03;;;11.83;100.00
37764;BME280;23602;51.084;7.090;2023-04-15T08:13:48;99474.81;;;11.82;100.00
37764;BME280;23602;51.084;7.090;2023-04-15T08:16:23;99478.81;;;11.80;100.00
37764;BME280;23602;51.084;7.090;2023-04-15T08:18:49;99473.91;;;11.88;100.00
37764;BME280;23602;51.084;7.090;2023-04-15T08:21:16;99477.88;;;11.97;100.00
37764;BME280;23602;51.084;7.090;2023-04-15T08:23:42;99479.41;;;12.05;100.00
37764;BME280;23602;51.084;7.090;2023-04-15T08:26:18;99478.34;;;12.18;100.00
37764;BME280;23602;51.084;7.090;2023-04-15T08:28:44;99493.09;;;12.03;100.00
37764;BME280;23602;51.084;7.090;2023-04-15T08:31:10;99493.69;;;11.82;100.00
37764;BME280;23602;51.084;7.090;2023-04-15T08:33:35;99486.16;;;11.61;100.00
37764;BME280;23602;51.084;7.090;2023-04-15T08:36:01;99494.72;;;11.70;100.00
37764;BME280;23602;51.084;7.090;2023-04-15T08:38:31;99497.22;;;11.94;100.00
37764;BME280;23602;51.084;7.090;2023-04-15T08:41:02;99497.88;;;12.48;100.00
37764;BME280;23602;51.084;7.090;2023-04-15T08:43:34;99498.16;;;13.31;100.00
37764;BME280;23602;51.084;7.090;2023-04-15T08:46:07;99490.00;;;14.09;100.00
37764;BME280;23602;51.084;7.090;2023-04-15T08:48:36;99500.84;;;14.69;100.00
37764;BME280;23602;51.084;7.090;2023-04-15T08:51:12;99494.03;;;14.88;100.00
37764;BME280;23602;51.084;7.090;2023-04-15T08:53:40;99493.69;;;15.06;92.84
37764;BME280;23602;51.084;7.090;2023-04-15T08:56:10;99506.91;;;14.60;91.91
37764;BME280;23602;51.084;7.090;2023-04-15T08:58:44;99501.63;;;14.10;84.83
37764;BME280;23602;51.084;7.090;2023-04-15T09:01:11;99503.41;;;14.04;97.72
37764;BME280;23602;51.084;7.090;2023-04-15T09:03:37;99518.16;;;14.13;93.65
37764;BME280;23602;51.084;7.090;2023-04-15T09:06:08;99516.25;;;14.30;100.00
37764;BME280;23602;51.084;7.090;2023-04-15T09:08:33;99515.94;;;14.10;100.00
37764;BME280;23602;51.084;7.090;2023-04-15T09:11:09;99517.69;;;13.66;90.49
37764;BME280;23602;51.084;7.090;2023-04-15T09:14:03;99514.88;;;13.61;91.68
37764;BME280;23602;51.084;7.090;2023-04-15T09:16:27;99517.66;;;14.16;100.00
37764;BME280;23602;51.084;7.090;2023-04-15T09:19:19;99523.94;;;14.77;100.00
37764;BME280;23602;51.084;7.090;2023-04-15T09:21:46;99521.31;;;15.57;100.00
37764;BME280;23602;51.084;7.090;2023-04-15T09:24:22;99526.13;;;16.18;100.00
37764;BME280;23602;51.084;7.090;2023-04-15T09:26:53;99527.34;;;16.42;85.73
37764;BME280;23602;51.084;7.090;2023-04-15T09:32:14;99527.13;;;16.07;69.34
37764;BME280;23602;51.084;7.090;2023-04-15T09:34:39;99535.97;;;16.71;74.98
37764;BME280;23602;51.084;7.090;2023-04-15T09:37:08;99531.19;;;16.98;73.85
37764;BME280;23602;51.084;7.090;2023-04-15T09:39:44;99530.44;;;17.13;66.50
37764;BME280;23602;51.084;7.090;2023-04-15T09:42:11;99534.66;;;17.71;62.47
37764;BME280;23602;51.084;7.090;2023-04-15T09:44:36;99531.91;;;18.26;64.43
37764;BME280;23602;51.084;7.090;2023-04-15T09:47:02;99539.53;;;17.54;54.29
37764;BME280;23602;51.084;7.090;2023-04-15T09:49:28;99541.16;;;17.75;58.49
37764;BME280;23602;51.084;7.090;2023-04-15T09:51:57;99549.31;;;18.20;61.69
37764;BME280;23602;51.084;7.090;2023-04-15T09:54:22;99546.84;;;18.39;63.42
37764;BME280;23602;51.084;7.090;2023-04-15T09:56:48;99555.28;;;18.58;57.43
37764;BME280;23602;51.084;7.090;2023-04-15T09:59:13;99559.66;;;18.23;61.23
37764;BME280;23602;51.084;7.090;2023-04-15T10:01:39;99556.09;;;18.18;62.30
37764;BME280;23602;51.084;7.090;2023-04-15T10:04:06;99566.75;;;18.09;62.63
37764;BME280;23602;51.084;7.090;2023-04-15T10:06:34;99567.56;;;17.90;62.41
37764;BME280;23602;51.084;7.090;2023-04-15T10:09:00;99572.16;;;17.74;63.34
37764;BME280;23602;51.084;7.090;2023-04-15T10:11:28;99577.50;;;17.44;67.42
37764;BME280;23602;51.084;7.090;2023-04-15T10:13:55;99579.28;;;17.08;65.69
37764;BME280;23602;51.084;7.090;2023-04-15T10:16:20;99583.34;;;17.00;72.95
37764;BME280;23602;51.084;7.090;2023-04-15T10:18:50;99583.72;;;16.67;66.14
37764;BME280;23602;51.084;7.090;2023-04-15T10:21:18;99585.22;;;16.16;65.09
37764;BME280;23602;51.084;7.090;2023-04-15T10:23:44;99582.16;;;16.08;73.61
37764;BME280;23602;51.084;7.090;2023-04-15T10:26:10;99595.50;;;16.14;70.24
37764;BME280;23602;51.084;7.090;2023-04-15T10:28:36;99586.53;;;16.51;72.86
37764;BME280;23602;51.084;7.090;2023-04-15T10:31:01;99591.47;;;16.54;67.38
37764;BME280;23602;51.084;7.090;2023-04-15T10:33:28;99580.44;;;16.65;66.19
37764;BME280;23602;51.084;7.090;2023-04-15T10:35:54;99593.31;;;16.11;78.50
37764;BME280;23602;51.084;7.090;2023-04-15T10:46:12;99599.59;;;15.85;78.61
37764;BME280;23602;51.084;7.090;2023-04-15T10:48:37;99598.63;;;15.69;78.24
37764;BME280;23602;51.084;7.090;2023-04-15T10:51:12;99613.09;;;15.53;84.51
37764;BME280;23602;51.084;7.090;2023-04-15T10:53:47;99619.69;;;14.97;84.46
37764;BME280;23602;51.084;7.090;2023-04-15T10:56:12;99615.16;;;14.81;99.38
37764;BME280;23602;51.084;7.090;2023-04-15T10:58:43;99621.47;;;14.70;100.00
37764;BME280;23602;51.084;7.090;2023-04-15T11:01:09;99619.84;;;14.52;96.18
37764;BME280;23602;51.084;7.090;2023-04-15T11:03:41;99627.28;;;14.79;100.00
37764;BME280;23602;51.084;7.090;2023-04-15T11:06:07;99624.72;;;14.89;100.00
37764;BME280;23602;51.084;7.090;2023-04-15T11:09:03;99619.09;;;14.95;97.80
37764;BME280;23602;51.084;7.090;2023-04-15T11:14:28;99616.97;;;15.62;91.01
37764;BME280;23602;51.084;7.090;2023-04-15T11:16:53;99619.44;;;14.99;84.36
37764;BME280;23602;51.084;7.090;2023-04-15T11:19:21;99626.78;;;15.03;100.00
37764;BME280;23602;51.084;7.090;2023-04-15T11:21:49;99629.66;;;14.75;100.00
37764;BME280;23602;51.084;7.090;2023-04-15T11:24:24;99633.03;;;15.04;100.00
37764;BME280;23602;51.084;7.090;2023-04-15T11:26:56;99640.84;;;15.22;100.00
37764;BME280;23602;51.084;7.090;2023-04-15T11:29:24;99636.19;;;15.39;100.00
37764;BME280;23602;51.084;7.090;2023-04-15T11:31:55;99633.78;;;15.21;100.00
37764;BME280;23602;51.084;7.090;2023-04-15T11:34:26;99638.59;;;14.76;100.00
37764;BME280;23602;51.084;7.090;2023-04-15T11:36:54;99652.25;;;14.31;100.00
37764;BME280;23602;51.084;7.090;2023-04-15T11:39:21;99653.94;;;14.20;100.00
37764;BME280;23602;51.084;7.090;2023-04-15T11:41:46;99653.41;;;13.90;100.00
37764;BME280;23602;51.084;7.090;2023-04-15T11:44:15;99664.59;;;13.54;100.00
37764;BME280;23602;51.084;7.090;2023-04-15T11:46:44;99661.44;;;13.45;100.00
37764;BME280;23602;51.084;7.090;2023-04-15T11:49:09;99672.28;;;13.34;100.00
37764;BME280;23602;51.084;7.090;2023-04-15T11:51:37;99673.47;;;13.26;100.00
37764;BME280;23602;51.084;7.090;2023-04-15T11:54:10;99667.72;;;12.99;100.00
37764;BME280;23602;51.084;7.090;2023-04-15T11:56:42;99671.75;;;12.62;100.00
37764;BME280;23602;51.084;7.090;2023-04-15T11:59:14;99683.44;;;12.56;100.00
37764;BME280;23602;51.084;7.090;2023-04-15T12:01:42;99680.63;;;12.51;100.00
37764;BME280;23602;51.084;7.090;2023-04-15T12:04:13;99684.75;;;12.53;100.00
37764;BME280;23602;51.084;7.090;2023-04-15T12:06:39;99687.31;;;12.48;100.00
37764;BME280;23602;51.084;7.090;2023-04-15T12:16:49;99709.84;;;12.65;100.00
37764;BME280;23602;51.084;7.090;2023-04-15T12:19:16;99714.63;;;12.52;100.00
37764;BME280;23602;51.084;7.090;2023-04-15T12:21:43;99722.09;;;12.38;100.00
37764;BME280;23602;51.084;7.090;2023-04-15T12:24:09;99722.28;;;12.14;100.00
37764;BME280;23602;51.084;7.090;2023-04-15T12:26:45;99731.47;;;11.94;100.00
37764;BME280;23602;51.084;7.090;2023-04-15T12:29:11;99728.03;;;11.87;100.00
37764;BME280;23602;51.084;7.090;2023-04-15T12:31:53;99738.44;;;11.84;100.00
37764;BME280;23602;51.084;7.090;2023-04-15T12:34:38;99743.56;;;11.74;100.00
37764;BME280;23602;51.084;7.090;2023-04-15T12:37:05;99746.94;;;11.69;100.00
37764;BME280;23602;51.084;7.090;2023-04-15T12:39:31;99749.75;;;11.56;100.00
37764;BME280;23602;51.084;7.090;2023-04-15T12:41:59;99749.97;;;11.55;100.00
37764;BME280;23602;51.084;7.090;2023-04-15T12:44:25;99763.34;;;11.43;100.00
37764;BME280;23602;51.084;7.090;2023-04-15T12:46:51;99759.31;;;11.34;100.00
37764;BME280;23602;51.084;7.090;2023-04-15T12:49:19;99769.84;;;11.35;100.00
37764;BME280;23602;51.084;7.090;2023-04-15T12:51:48;99772.41;;;11.30;100.00
37764;BME280;23602;51.084;7.090;2023-04-15T12:54:16;99780.03;;;11.33;100.00
37764;BME280;23602;51.084;7.090;2023-04-15T12:56:53;99776.34;;;11.28;100.00
37764;BME280;23602;51.084;7.090;2023-04-15T12:59:18;99776.41;;;11.21;100.00
37764;BME280;23602;51.084;7.090;2023-04-15T13:01:44;99782.69;;;11.15;100.00
37764;BME280;23602;51.084;7.090;2023-04-15T13:04:11;99798.28;;;11.07;100.00
37764;BME280;23602;51.084;7.090;2023-04-15T13:06:36;99798.50;;;11.05;100.00
37764;BME280;23602;51.084;7.090;2023-04-15T13:09:02;99794.31;;;11.09;100.00
37764;BME280;23602;51.084;7.090;2023-04-15T13:11:29;99797.16;;;11.14;100.00
37764;BME280;23602;51.084;7.090;2023-04-15T13:13:58;99798.81;;;11.15;100.00
37764;BME280;23602;51.084;7.090;2023-04-15T13:16:23;99808.34;;;11.11;100.00
37764;BME280;23602;51.084;7.090;2023-04-15T13:18:49;99804.63;;;11.12;100.00